sensor_id;sensor_type;location;lat;lon;timestamp;P1;durP1;ratioP1;P2;durP2;ratioP2
26780;SDS011;14366;49.184;8.054;2023-06-04T00:01:01;5.03;;;2.22;;
26780;SDS011;14366;49.184;8.054;2023-06-04T00:11:24;5.20;;;2.67;;
26780;SDS011;14366;49.184;8.054;2023-06-04T00:22:03;2.90;;;1.90;;
26780;SDS011;14366;49.184;8.054;2023-06-04T00:27:20;3.27;;;2.20;;
26780;SDS011;14366;49.184;8.054;2023-06-04T00:38:14;4.80;;;2.20;;
26780;SDS011;14366;49.184;8.054;2023-06-04T00:43:47;3.75;;;2.10;;
26780;SDS011;14366;49.184;8.054;2023-06-04T00:49:19;4.05;;;2.35;;
26780;SDS011;14366;49.184;8.054;2023-06-04T00:54:54;2.67;;;2.00;;
26780;SDS011;14366;49.184;8.054;2023-06-04T01:05:32;3.00;;;1.70;;
26780;SDS011;14366;49.184;8.054;2023-06-04T01:16:05;1.83;;;1.60;;
26780;SDS011;14366;49.184;8.054;2023-06-04T01:26:44;3.60;;;1.90;;
26780;SDS011;14366;49.184;8.054;2023-06-04T01:37:23;5.13;;;2.10;;
26780;SDS011;14366;49.184;8.054;2023-06-04T01:47:46;3.03;;;2.10;;
26780;SDS011;14366;49.184;8.054;2023-06-04T01:58:22;3.30;;;2.00;;
26780;SDS011;14366;49.184;8.054;2023-06-04T02:03:55;3.00;;;1.70;;
26780;SDS011;14366;49.184;8.054;2023-06-04T02:09:30;3.65;;;1.75;;
26780;SDS011;14366;49.184;8.054;2023-06-04T02:15:02;2.93;;;1.90;;
26780;SDS011;14366;49.184;8.054;2023-06-04T02:20:35;3.97;;;1.63;;
26780;SDS011;14366;49.184;8.054;2023-06-04T02:31:26;2.77;;;1.53;;
26780;SDS011;14366;49.184;8.054;2023-06-04T02:41:49;4.93;;;1.60;;
26780;SDS011;14366;49.184;8.054;2023-06-04T02:47:21;6.95;;;1.90;;
26780;SDS011;14366;49.184;8.054;2023-06-04T02:52:50;3.33;;;1.70;;
26780;SDS011;14366;49.184;8.054;2023-06-04T02:58:08;2.13;;;1.67;;
26780;SDS011;14366;49.184;8.054;2023-06-04T03:03:43;3.40;;;1.80;;
26780;SDS011;14366;49.184;8.054;2023-06-04T03:09:00;4.70;;;1.80;;
26780;SDS011;14366;49.184;8.054;2023-06-04T03:14:18;3.80;;;1.90;;
26780;SDS011;14366;49.184;8.054;2023-06-04T03:19:52;3.57;;;1.70;;
26780;SDS011;14366;49.184;8.054;2023-06-04T03:25:09;4.03;;;1.87;;
26780;SDS011;14366;49.184;8.054;2023-06-04T03:30:43;3.40;;;1.70;;
26780;SDS011;14366;49.184;8.054;2023-06-04T03:36:15;3.10;;;1.80;;
26780;SDS011;14366;49.184;8.054;2023-06-04T03:41:31;2.40;;;1.60;;
26780;SDS011;14366;49.184;8.054;2023-06-04T03:47:04;2.50;;;1.60;;
26780;SDS011;14366;49.184;8.054;2023-06-04T03:52:35;2.00;;;1.60;;
26780;SDS011;14366;49.184;8.054;2023-06-04T03:57:52;3.10;;;2.00;;
26780;SDS011;14366;49.184;8.054;2023-06-04T04:03:27;3.00;;;1.60;;
26780;SDS011;14366;49.184;8.054;2023-06-04T04:08:58;2.60;;;1.80;;
26780;SDS011;14366;49.184;8.054;2023-06-04T04:14:33;2.20;;;1.70;;
26780;SDS011;14366;49.184;8.054;2023-06-04T04:20:07;3.07;;;1.67;;
26780;SDS011;14366;49.184;8.054;2023-06-04T04:25:36;2.40;;;1.60;;
26780;SDS011;14366;49.184;8.054;2023-06-04T04:30:56;4.23;;;1.80;;
26780;SDS011;14366;49.184;8.054;2023-06-04T04:36:30;3.50;;;1.90;;
26780;SDS011;14366;49.184;8.054;2023-06-04T04:42:01;1.90;;;1.60;;
26780;SDS011;14366;49.184;8.054;2023-06-04T04:47:33;3.50;;;1.87;;
26780;SDS011;14366;49.184;8.054;2023-06-04T04:52:52;3.10;;;1.80;;
26780;SDS011;14366;49.184;8.054;2023-06-04T04:58:24;2.85;;;1.70;;
26780;SDS011;14366;49.184;8.054;2023-06-04T05:03:41;2.10;;;1.60;;
26780;SDS011;14366;49.184;8.054;2023-06-04T05:08:59;3.33;;;1.80;;
26780;SDS011;14366;49.184;8.054;2023-06-04T05:14:28;2.75;;;1.70;;
26780;SDS011;14366;49.184;8.054;2023-06-04T05:19:46;1.80;;;1.60;;
26780;SDS011;14366;49.184;8.054;2023-06-04T05:25:21;2.90;;;1.70;;
26780;SDS011;14366;49.184;8.054;2023-06-04T05:30:53;2.93;;;1.80;;
26780;SDS011;14366;49.184;8.054;2023-06-04T05:36:24;3.15;;;1.70;;
26780;SDS011;14366;49.184;8.054;2023-06-04T05:47:02;2.00;;;1.50;;
26780;SDS011;14366;49.184;8.054;2023-06-04T05:52:34;2.60;;;1.77;;
26780;SDS011;14366;49.184;8.054;2023-06-04T05:58:07;4.27;;;1.80;;
26780;SDS011;14366;49.184;8.054;2023-06-04T06:08:30;3.46;;;1.82;;
26780;SDS011;14366;49.184;8.054;2023-06-04T06:14:05;4.10;;;1.75;;
26780;SDS011;14366;49.184;8.054;2023-06-04T06:19:25;3.45;;;1.75;;
26780;SDS011;14366;49.184;8.054;2023-06-04T06:24:46;5.20;;;1.70;;
26780;SDS011;14366;49.184;8.054;2023-06-04T06:30:18;2.43;;;1.60;;
26780;SDS011;14366;49.184;8.054;2023-06-04T06:35:39;3.23;;;1.73;;
26780;SDS011;14366;49.184;8.054;2023-06-04T06:41:12;3.27;;;1.80;;
26780;SDS011;14366;49.184;8.054;2023-06-04T06:46:41;2.37;;;1.70;;
26780;SDS011;14366;49.184;8.054;2023-06-04T06:52:13;2.97;;;1.70;;
26780;SDS011;14366;49.184;8.054;2023-06-04T06:57:46;4.27;;;1.60;;
26780;SDS011;14366;49.184;8.054;2023-06-04T07:03:18;4.37;;;2.00;;
26780;SDS011;14366;49.184;8.054;2023-06-04T07:08:35;3.80;;;1.70;;
26780;SDS011;14366;49.184;8.054;2023-06-04T07:14:08;2.30;;;1.50;;
26780;SDS011;14366;49.184;8.054;2023-06-04T07:19:40;2.27;;;1.77;;
26780;SDS011;14366;49.184;8.054;2023-06-04T07:24:57;2.43;;;1.73;;
26780;SDS011;14366;49.184;8.054;2023-06-04T07:30:15;3.87;;;1.77;;
26780;SDS011;14366;49.184;8.054;2023-06-04T07:35:48;2.80;;;1.80;;
26780;SDS011;14366;49.184;8.054;2023-06-04T07:41:05;3.93;;;1.80;;
26780;SDS011;14366;49.184;8.054;2023-06-04T07:46:38;2.93;;;1.60;;
26780;SDS011;14366;49.184;8.054;2023-06-04T07:52:11;3.95;;;1.75;;
26780;SDS011;14366;49.184;8.054;2023-06-04T07:57:28;3.73;;;1.70;;
26780;SDS011;14366;49.184;8.054;2023-06-04T08:03:05;3.73;;;1.90;;
26780;SDS011;14366;49.184;8.054;2023-06-04T08:13:44;3.30;;;1.80;;
26780;SDS011;14366;49.184;8.054;2023-06-04T08:19:05;3.00;;;1.83;;
26780;SDS011;14366;49.184;8.054;2023-06-04T08:24:37;6.00;;;2.10;;
26780;SDS011;14366;49.184;8.054;2023-06-04T08:29:53;2.75;;;1.80;;
26780;SDS011;14366;49.184;8.054;2023-06-04T08:35:14;3.00;;;1.90;;
26780;SDS011;14366;49.184;8.054;2023-06-04T08:40:44;3.00;;;2.00;;
26780;SDS011;14366;49.184;8.054;2023-06-04T08:46:04;5.40;;;2.37;;
26780;SDS011;14366;49.184;8.054;2023-06-04T08:51:38;4.20;;;1.90;;
26780;SDS011;14366;49.184;8.054;2023-06-04T08:57:06;4.12;;;2.30;;
26780;SDS011;14366;49.184;8.054;2023-06-04T09:02:38;6.25;;;2.00;;
26780;SDS011;14366;49.184;8.054;2023-06-04T09:08:11;3.70;;;2.05;;
26780;SDS011;14366;49.184;8.054;2023-06-04T09:13:43;5.25;;;2.10;;
26780;SDS011;14366;49.184;8.054;2023-06-04T09:19:15;3.63;;;2.30;;
26780;SDS011;14366;49.184;8.054;2023-06-04T09:24:48;6.87;;;2.10;;
26780;SDS011;14366;49.184;8.054;2023-06-04T09:30:20;5.10;;;2.03;;
26780;SDS011;14366;49.184;8.054;2023-06-04T09:35:53;3.20;;;2.05;;
26780;SDS011;14366;49.184;8.054;2023-06-04T09:41:29;3.25;;;2.30;;
26780;SDS011;14366;49.184;8.054;2023-06-04T09:47:04;3.63;;;1.83;;
26780;SDS011;14366;49.184;8.054;2023-06-04T09:52:39;4.30;;;2.15;;
26780;SDS011;14366;49.184;8.054;2023-06-04T09:58:13;3.85;;;2.20;;
26780;SDS011;14366;49.184;8.054;2023-06-04T10:03:47;2.42;;;1.90;;
26780;SDS011;14366;49.184;8.054;2023-06-04T10:09:22;4.22;;;2.10;;
26780;SDS011;14366;49.184;8.054;2023-06-04T10:14:54;3.60;;;1.87;;
26780;SDS011;14366;49.184;8.054;2023-06-04T10:20:22;12.35;;;2.60;;
26780;SDS011;14366;49.184;8.054;2023-06-04T10:25:57;4.53;;;2.20;;
26780;SDS011;14366;49.184;8.054;2023-06-04T10:31:31;3.44;;;2.20;;
26780;SDS011;14366;49.184;8.054;2023-06-04T10:37:00;3.74;;;2.50;;
26780;SDS011;14366;49.184;8.054;2023-06-04T10:42:37;2.90;;;2.20;;
26780;SDS011;14366;49.184;8.054;2023-06-04T10:48:13;3.00;;;2.15;;
26780;SDS011;14366;49.184;8.054;2023-06-04T10:53:44;3.35;;;2.10;;
26780;SDS011;14366;49.184;8.054;2023-06-04T11:04:08;4.13;;;2.20;;
26780;SDS011;14366;49.184;8.054;2023-06-04T11:09:47;6.12;;;2.38;;
26780;SDS011;14366;49.184;8.054;2023-06-04T11:15:18;8.05;;;2.30;;
26780;SDS011;14366;49.184;8.054;2023-06-04T11:20:38;2.77;;;2.17;;
26780;SDS011;14366;49.184;8.054;2023-06-04T11:26:12;2.87;;;2.17;;
26780;SDS011;14366;49.184;8.054;2023-06-04T11:31:47;3.20;;;2.05;;
26780;SDS011;14366;49.184;8.054;2023-06-04T11:37:24;3.95;;;2.40;;
26780;SDS011;14366;49.184;8.054;2023-06-04T11:42:55;3.75;;;2.10;;
26780;SDS011;14366;49.184;8.054;2023-06-04T11:48:28;4.15;;;2.00;;
26780;SDS011;14366;49.184;8.054;2023-06-04T11:54:01;2.87;;;2.10;;
26780;SDS011;14366;49.184;8.054;2023-06-04T11:59:35;2.70;;;2.00;;
26780;SDS011;14366;49.184;8.054;2023-06-04T12:10:10;4.47;;;2.27;;
26780;SDS011;14366;49.184;8.054;2023-06-04T12:15:42;4.60;;;1.94;;
26780;SDS011;14366;49.184;8.054;2023-06-04T12:21:16;3.72;;;2.00;;
26780;SDS011;14366;49.184;8.054;2023-06-04T12:27:00;2.10;;;1.90;;
26780;SDS011;14366;49.184;8.054;2023-06-04T12:32:23;3.25;;;2.22;;
26780;SDS011;14366;49.184;8.054;2023-06-04T12:37:55;5.56;;;2.10;;
26780;SDS011;14366;49.184;8.054;2023-06-04T12:43:31;3.75;;;2.10;;
26780;SDS011;14366;49.184;8.054;2023-06-04T12:49:03;2.85;;;2.22;;
26780;SDS011;14366;49.184;8.054;2023-06-04T12:54:20;3.05;;;2.15;;
26780;SDS011;14366;49.184;8.054;2023-06-04T12:59:41;3.55;;;2.50;;
26780;SDS011;14366;49.184;8.054;2023-06-04T13:10:28;3.37;;;2.50;;
26780;SDS011;14366;49.184;8.054;2023-06-04T13:16:01;3.53;;;2.52;;
26780;SDS011;14366;49.184;8.054;2023-06-04T13:21:33;3.73;;;2.43;;
26780;SDS011;14366;49.184;8.054;2023-06-04T13:27:05;2.65;;;2.30;;
26780;SDS011;14366;49.184;8.054;2023-06-04T13:32:23;2.92;;;2.32;;
26780;SDS011;14366;49.184;8.054;2023-06-04T13:37:53;3.37;;;2.58;;
26780;SDS011;14366;49.184;8.054;2023-06-04T13:43:28;5.03;;;2.60;;
26780;SDS011;14366;49.184;8.054;2023-06-04T13:48:49;4.55;;;2.83;;
26780;SDS011;14366;49.184;8.054;2023-06-04T13:54:21;2.58;;;2.30;;
26780;SDS011;14366;49.184;8.054;2023-06-04T13:59:42;3.72;;;2.50;;
26780;SDS011;14366;49.184;8.054;2023-06-04T14:05:04;3.32;;;2.42;;
26780;SDS011;14366;49.184;8.054;2023-06-04T14:10:39;2.40;;;2.05;;
26780;SDS011;14366;49.184;8.054;2023-06-04T14:16:14;3.42;;;2.37;;
26780;SDS011;14366;49.184;8.054;2023-06-04T14:21:47;4.90;;;2.10;;
26780;SDS011;14366;49.184;8.054;2023-06-04T14:27:22;4.60;;;2.40;;
26780;SDS011;14366;49.184;8.054;2023-06-04T14:32:42;2.90;;;2.35;;
26780;SDS011;14366;49.184;8.054;2023-06-04T14:38:03;2.42;;;2.20;;
26780;SDS011;14366;49.184;8.054;2023-06-04T14:48:42;4.22;;;2.60;;
26780;SDS011;14366;49.184;8.054;2023-06-04T14:54:15;7.80;;;2.50;;
26780;SDS011;14366;49.184;8.054;2023-06-04T14:59:50;2.33;;;2.10;;
26780;SDS011;14366;49.184;8.054;2023-06-04T15:05:07;3.20;;;2.22;;
26780;SDS011;14366;49.184;8.054;2023-06-04T15:10:40;3.85;;;2.42;;
26780;SDS011;14366;49.184;8.054;2023-06-04T15:16:10;4.25;;;2.40;;
26780;SDS011;14366;49.184;8.054;2023-06-04T15:21:42;4.45;;;2.40;;
26780;SDS011;14366;49.184;8.054;2023-06-04T15:27:04;3.70;;;2.28;;
26780;SDS011;14366;49.184;8.054;2023-06-04T15:32:39;3.75;;;2.55;;
26780;SDS011;14366;49.184;8.054;2023-06-04T15:38:14;3.70;;;2.45;;
26780;SDS011;14366;49.184;8.054;2023-06-04T15:43:51;5.40;;;2.42;;
26780;SDS011;14366;49.184;8.054;2023-06-04T15:49:22;2.40;;;2.20;;
26780;SDS011;14366;49.184;8.054;2023-06-04T15:54:39;3.35;;;2.00;;
26780;SDS011;14366;49.184;8.054;2023-06-04T16:05:17;3.70;;;2.08;;
26780;SDS011;14366;49.184;8.054;2023-06-04T16:15:53;3.22;;;2.10;;
26780;SDS011;14366;49.184;8.054;2023-06-04T16:26:31;3.40;;;2.10;;
26780;SDS011;14366;49.184;8.054;2023-06-04T16:37:06;2.15;;;1.85;;
26780;SDS011;14366;49.184;8.054;2023-06-04T16:42:25;2.73;;;2.00;;
26780;SDS011;14366;49.184;8.054;2023-06-04T16:53:03;4.55;;;2.25;;
26780;SDS011;14366;49.184;8.054;2023-06-04T16:58:37;3.95;;;2.10;;
26780;SDS011;14366;49.184;8.054;2023-06-04T17:04:12;3.65;;;2.10;;
26780;SDS011;14366;49.184;8.054;2023-06-04T17:09:47;3.42;;;2.03;;
26780;SDS011;14366;49.184;8.054;2023-06-04T17:15:10;3.60;;;2.20;;
26780;SDS011;14366;49.184;8.054;2023-06-04T17:20:42;2.90;;;2.00;;
26780;SDS011;14366;49.184;8.054;2023-06-04T17:26:02;2.92;;;1.90;;
26780;SDS011;14366;49.184;8.054;2023-06-04T17:36:29;2.80;;;2.10;;
26780;SDS011;14366;49.184;8.054;2023-06-04T17:47:05;1.70;;;1.60;;
26780;SDS011;14366;49.184;8.054;2023-06-04T17:52:27;3.87;;;2.00;;
26780;SDS011;14366;49.184;8.054;2023-06-04T17:57:58;2.30;;;2.05;;
26780;SDS011;14366;49.184;8.054;2023-06-04T18:03:30;2.50;;;2.00;;
26780;SDS011;14366;49.184;8.054;2023-06-04T18:09:05;2.80;;;2.10;;
26780;SDS011;14366;49.184;8.054;2023-06-04T18:14:41;2.34;;;2.08;;
26780;SDS011;14366;49.184;8.054;2023-06-04T18:19:58;2.70;;;2.05;;
26780;SDS011;14366;49.184;8.054;2023-06-04T18:25:35;5.32;;;2.28;;
26780;SDS011;14366;49.184;8.054;2023-06-04T18:31:09;3.15;;;2.30;;
26780;SDS011;14366;49.184;8.054;2023-06-04T18:36:30;4.45;;;2.40;;
26780;SDS011;14366;49.184;8.054;2023-06-04T18:42:06;5.22;;;2.15;;
26780;SDS011;14366;49.184;8.054;2023-06-04T18:47:39;2.38;;;2.10;;
26780;SDS011;14366;49.184;8.054;2023-06-04T18:53:12;3.37;;;1.95;;
26780;SDS011;14366;49.184;8.054;2023-06-04T18:58:45;3.60;;;2.25;;
26780;SDS011;14366;49.184;8.054;2023-06-04T19:04:21;4.07;;;2.20;;
26780;SDS011;14366;49.184;8.054;2023-06-04T19:09:42;3.72;;;2.22;;
26780;SDS011;14366;49.184;8.054;2023-06-04T19:15:04;2.85;;;2.00;;
26780;SDS011;14366;49.184;8.054;2023-06-04T19:20:40;4.72;;;2.60;;
26780;SDS011;14366;49.184;8.054;2023-06-04T19:31:08;3.55;;;2.30;;
26780;SDS011;14366;49.184;8.054;2023-06-04T19:36:28;3.30;;;2.20;;
26780;SDS011;14366;49.184;8.054;2023-06-04T20:09:22;5.00;;;2.15;;
26780;SDS011;14366;49.184;8.054;2023-06-04T20:19:53;3.55;;;2.23;;
26780;SDS011;14366;49.184;8.054;2023-06-04T20:30:48;3.15;;;2.40;;
26780;SDS011;14366;49.184;8.054;2023-06-04T20:41:33;3.70;;;2.40;;
26780;SDS011;14366;49.184;8.054;2023-06-04T20:47:09;3.95;;;2.33;;
26780;SDS011;14366;49.184;8.054;2023-06-04T21:02:47;3.78;;;2.30;;
26780;SDS011;14366;49.184;8.054;2023-06-04T21:08:20;2.50;;;2.12;;
26780;SDS011;14366;49.184;8.054;2023-06-04T21:19:00;3.08;;;2.17;;
26780;SDS011;14366;49.184;8.054;2023-06-04T21:24:20;3.77;;;2.27;;
26780;SDS011;14366;49.184;8.054;2023-06-04T21:39:50;2.90;;;2.40;;
26780;SDS011;14366;49.184;8.054;2023-06-04T21:50:29;3.62;;;2.35;;
26780;SDS011;14366;49.184;8.054;2023-06-04T22:01:06;4.35;;;2.40;;
26780;SDS011;14366;49.184;8.054;2023-06-04T22:32:20;2.47;;;2.20;;
26780;SDS011;14366;49.184;8.054;2023-06-04T22:37:40;3.10;;;2.20;;
26780;SDS011;14366;49.184;8.054;2023-06-04T22:43:15;3.70;;;2.53;;
26780;SDS011;14366;49.184;8.054;2023-06-04T22:48:36;5.80;;;2.23;;
26780;SDS011;14366;49.184;8.054;2023-06-04T22:53:57;2.80;;;2.20;;
26780;SDS011;14366;49.184;8.054;2023-06-04T22:59:31;3.05;;;2.40;;
26780;SDS011;14366;49.184;8.054;2023-06-04T23:04:53;5.68;;;2.40;;
26780;SDS011;14366;49.184;8.054;2023-06-04T23:10:25;2.75;;;2.25;;
26780;SDS011;14366;49.184;8.054;2023-06-04T23:16:00;4.90;;;2.70;;
26780;SDS011;14366;49.184;8.054;2023-06-04T23:21:25;3.67;;;3.00;;
26780;SDS011;14366;49.184;8.054;2023-06-04T23:31:51;3.83;;;2.45;;
26780;SDS011;14366;49.184;8.054;2023-06-04T23:52:29;6.40;;;2.70;;
26780;SDS011;14366;49.184;8.054;2023-06-04T23:57:51;2.70;;;2.30;;
